Ayr Dpi Research Station, Queensland

10:23 AM EST on August 21, 2014 (GMT +1000)
Home Hill | Change Station
CLOSE
Current Station
Personal Weather Station
Location: Home Hill, QUEENSLAND
Elevation: 56 ft
Nearby Weather Stations

Elev 56 ft 19.66 °S, 147.42 °E | Updated 3 seconds ago

Partly Cloudy
Partly Cloudy
76.6 °F
Feels Like 78 °F
N
5.4
Wind Variable Wind from NE
Gusts 7.6 mph

Today
High -- | Low -- °F
--% Chance of Precip.
Yesterday
High -- | Low -- °F
Precip. -- in
6:27 AM 5:59 PM
Waning Crescent, 18% visible
Pressure 30.09 in
Visibility 6.2 miles
Clouds Few 4000 ft
Heat Index 78 °F
Dew Point 59 °F
Humidity 55%
Rainfall 0.00 in
Snow Depth Not available.
UV 0 out of 12
Pollen Not available.
Air Quality Not available.
Flu Activity Not available.
METAR YBTL 210000Z 09009KT 9999 FEW040 23/12 Q1019 FM0000 10012KT 9999 FEW035 FM0100 07015KT 9999 FEW035

More Conditions Fewer Conditions

Pressure 30.09 in
Visibility 6.2 miles
Clouds Few 4000 ft
Heat Index 78 °F
Dew Point 59 °F
Humidity 55%
Rainfall 0.00 in
Snow Depth Not available.
UV 0 out of 12
Pollen Not available.
Air Quality Not available.
Flu Activity Not available.
METAR YBTL 210000Z 09009KT 9999 FEW040 23/12 Q1019 FM0000 10012KT 9999 FEW035 FM0100 07015KT 9999 FEW035

More Conditions Fewer Conditions

10-Day Weather Forecast

Almanac

Astronomy

Aug. 21, 2014 Rise Set
Actual Time 6:27 AM EST 5:59 PM EST
Civil Twilight 6:05 AM EST 6:22 PM EST
Nautical Twilight 5:39 AM EST 6:48 PM EST
Astronomical Twilight 5:13 AM EST 7:13 PM EST
Moon 2:59 AM EST 2:27 PM EST
Length of Visible Light 12h 16m
Length of Day
11h 31m
Tomorrow will be 0m 59s longer.
Waning Crescent, 18% of the Moon is Illuminated
Aug 20
Waning Crescent
Aug 25
New
Sep 2
First Quarter
Sep 8
Full
Sep 15
Last Quarter

Yesterday's Extremes

Country Highs Country Lows

Community

WunderPhotos

Upload Photos

1,745,807 photos uploaded!

WunderBlogs® & News

Nearby

Snow Depth

Not available.

Earthquake Activity

City Distance Mag. Time & Date
No recent earthquake activity has been reported nearby.
Minimum magnitude displayed is 2.5.

Coastal Water Temperatures

Place Temperature
No Stations Reporting

Nearby Weather Stations